Time;durP1;ratioP1;P1;durP2;ratioP2;P2;SDS_P1;SDS_P2;PMS_P1;PMS_P2;Temp;Humidity;BMP_temperature;BMP_pressure;BME280_temperature;BME280_humidity;BME280_pressure;Samples;Min_cycle;Max_cycle;Signal;HPM_P1;HPM_P2
2023/06/29 00:01:03;;;;;;;11.77;10.80;;;12.80;75.10;;;;;;5081846;28;20123;-73
2023/06/29 00:03:31;;;;;;;12.23;11.32;;;12.80;75.00;;;;;;5080866;28;20563;-74
2023/06/29 00:05:58;;;;;;;12.30;11.40;;;12.90;75.20;;;;;;5077954;28;20544;-73
2023/06/29 00:08:25;;;;;;;11.77;10.98;;;12.90;75.90;;;;;;5079411;28;20017;-74
2023/06/29 00:10:52;;;;;;;12.82;11.13;;;12.90;75.50;;;;;;5076591;28;20020;-73
2023/06/29 00:13:18;;;;;;;11.80;10.90;;;12.90;76.00;;;;;;5080154;28;20040;-74
2023/06/29 00:15:44;;;;;;;11.63;10.85;;;13.00;75.30;;;;;;5080100;28;20073;-74
2023/06/29 00:18:11;;;;;;;12.13;11.02;;;13.10;75.40;;;;;;5058613;28;20133;-74
2023/06/29 00:20:36;;;;;;;12.35;11.25;;;13.00;75.30;;;;;;5078994;28;20062;-73
2023/06/29 00:23:02;;;;;;;11.50;10.73;;;13.00;75.50;;;;;;5091022;28;20036;-74
2023/06/29 00:25:28;;;;;;;12.35;11.43;;;12.90;75.60;;;;;;5075482;28;20056;-74
2023/06/29 00:27:53;;;;;;;12.07;10.90;;;12.80;75.90;;;;;;5077853;28;20043;-73
2023/06/29 00:30:19;;;;;;;11.75;10.95;;;12.80;75.80;;;;;;5078655;28;20162;-74
2023/06/29 00:32:46;;;;;;;11.40;10.70;;;12.80;76.30;;;;;;5062794;28;20123;-73
2023/06/29 00:35:12;;;;;;;11.98;10.98;;;12.80;75.60;;;;;;5075975;28;21528;-73
2023/06/29 00:37:39;;;;;;;11.73;10.93;;;12.80;75.70;;;;;;5076959;28;20036;-74
2023/06/29 00:40:05;;;;;;;11.57;10.77;;;12.80;75.70;;;;;;5077036;28;20031;-74
2023/06/29 00:42:31;;;;;;;12.52;11.57;;;12.90;76.00;;;;;;5075968;28;20029;-74
2023/06/29 00:44:57;;;;;;;11.65;10.75;;;12.70;76.50;;;;;;5076426;28;20032;-74
2023/06/29 00:47:23;;;;;;;12.32;11.43;;;12.60;77.20;;;;;;5059050;28;20402;-73
2023/06/29 00:49:49;;;;;;;11.80;10.93;;;12.50;76.70;;;;;;5075386;28;20105;-74
2023/06/29 00:52:16;;;;;;;12.13;11.13;;;12.50;77.30;;;;;;5092082;28;20511;-72
2023/06/29 00:54:42;;;;;;;11.90;11.10;;;12.50;77.50;;;;;;5074727;28;20395;-72
2023/06/29 00:57:08;;;;;;;12.23;11.45;;;12.50;77.70;;;;;;5078502;28;20024;-72
2023/06/29 00:59:35;;;;;;;12.27;11.40;;;12.40;78.00;;;;;;5079004;28;20059;-72
2023/06/29 01:02:00;;;;;;;12.15;11.35;;;12.30;78.60;;;;;;5075156;28;20039;-71
2023/06/29 01:04:27;;;;;;;12.23;11.18;;;12.30;78.70;;;;;;5076121;28;20482;-72
2023/06/29 01:06:59;;;;;;;12.75;11.68;;;12.20;78.50;;;;;;5078234;28;20041;-73
2023/06/29 01:09:25;;;;;;;12.10;11.23;;;12.20;78.60;;;;;;5076250;28;20036;-72
2023/06/29 01:11:52;;;;;;;12.02;11.13;;;12.20;79.40;;;;;;5074820;28;20071;-72
2023/06/29 01:14:19;;;;;;;11.80;10.95;;;12.20;78.70;;;;;;5091211;28;20021;-73
2023/06/29 01:16:47;;;;;;;11.55;10.82;;;12.30;78.50;;;;;;5072285;28;20028;-73
2023/06/29 01:19:19;;;;;;;12.45;11.55;;;12.30;78.20;;;;;;5079566;28;20159;-73
2023/06/29 01:21:54;;;;;;;12.77;11.90;;;12.20;78.80;;;;;;5073308;28;20036;-74
2023/06/29 01:24:25;;;;;;;14.00;12.93;;;12.20;79.10;;;;;;5079051;28;20063;-73
2023/06/29 01:26:51;;;;;;;13.35;12.35;;;12.20;78.80;;;;;;5077789;28;20569;-73
2023/06/29 01:29:24;;;;;;;13.05;12.23;;;12.20;78.90;;;;;;5076808;28;20036;-73
2023/06/29 01:31:59;;;;;;;13.50;12.60;;;12.30;79.10;;;;;;5075210;28;20478;-74
2023/06/29 01:34:30;;;;;;;13.57;12.57;;;12.40;79.80;;;;;;5073327;28;20536;-72
2023/06/29 01:37:02;;;;;;;13.07;12.18;;;12.30;79.80;;;;;;5079370;28;20029;-73
2023/06/29 01:39:32;;;;;;;13.27;12.15;;;12.30;79.60;;;;;;5074638;28;20053;-72
2023/06/29 01:41:59;;;;;;;12.40;11.60;;;12.30;79.60;;;;;;5072063;28;20386;-73
2023/06/29 01:44:25;;;;;;;13.07;12.20;;;12.30;79.20;;;;;;5072452;28;20054;-73
2023/06/29 01:46:52;;;;;;;13.80;12.80;;;12.20;80.00;;;;;;5056937;28;20122;-73
2023/06/29 01:49:18;;;;;;;12.88;11.88;;;12.20;79.80;;;;;;5079813;28;20020;-73
2023/06/29 01:51:43;;;;;;;13.48;12.48;;;12.20;80.30;;;;;;5075256;28;20073;-73
2023/06/29 01:54:09;;;;;;;14.02;12.68;;;12.20;80.00;;;;;;5073403;28;20482;-73
2023/06/29 01:56:35;;;;;;;13.30;12.40;;;12.00;79.80;;;;;;5078981;28;20028;-74
2023/06/29 01:59:01;;;;;;;13.55;12.65;;;12.00;80.90;;;;;;5075238;28;20024;-72
2023/06/29 02:01:28;;;;;;;13.55;12.55;;;12.00;81.10;;;;;;5073973;28;20042;-74
2023/06/29 02:03:54;;;;;;;14.25;13.13;;;12.00;81.40;;;;;;5076383;28;20074;-71
2023/06/29 02:06:19;;;;;;;13.32;12.35;;;12.00;81.50;;;;;;5074508;28;20020;-72
2023/06/29 02:08:45;;;;;;;13.63;12.73;;;12.00;81.10;;;;;;5077981;28;20040;-72
2023/06/29 02:11:10;;;;;;;12.90;11.95;;;12.00;81.20;;;;;;5077061;28;20058;-72
2023/06/29 02:13:36;;;;;;;14.73;13.63;;;12.00;80.50;;;;;;5073328;28;20041;-72
2023/06/29 02:16:02;;;;;;;14.07;12.98;;;12.00;81.50;;;;;;5075069;28;20115;-72
2023/06/29 02:18:28;;;;;;;13.73;12.82;;;12.00;81.70;;;;;;5089352;28;20036;-72
2023/06/29 02:20:54;;;;;;;13.52;12.52;;;11.90;81.80;;;;;;5075359;28;20055;-73
2023/06/29 02:23:19;;;;;;;13.48;12.27;;;11.90;82.10;;;;;;5078350;28;20055;-73
2023/06/29 02:25:45;;;;;;;14.05;12.95;;;11.90;82.70;;;;;;5088585;28;20032;-72
2023/06/29 02:28:11;;;;;;;13.07;12.07;;;11.90;81.90;;;;;;5075096;28;20652;-72
2023/06/29 02:30:36;;;;;;;13.05;12.15;;;11.80;82.20;;;;;;5071528;28;20036;-73
2023/06/29 02:33:02;;;;;;;13.18;12.15;;;11.80;82.80;;;;;;5068958;28;20086;-72
2023/06/29 02:35:28;;;;;;;13.05;11.95;;;11.70;82.90;;;;;;5076877;28;20036;-73
2023/06/29 02:37:53;;;;;;;13.00;11.90;;;11.70;83.50;;;;;;5073280;28;20041;-73
2023/06/29 02:40:19;;;;;;;13.30;12.32;;;11.70;83.90;;;;;;5082396;28;20056;-73
2023/06/29 02:42:45;;;;;;;13.25;12.02;;;11.70;83.60;;;;;;5076748;28;20020;-72
2023/06/29 02:45:10;;;;;;;13.45;11.73;;;11.70;83.20;;;;;;5074873;28;20066;-72
2023/06/29 02:47:36;;;;;;;12.15;11.23;;;11.70;83.00;;;;;;5077661;28;20450;-73
2023/06/29 02:50:02;;;;;;;11.82;10.93;;;11.60;83.50;;;;;;5074008;28;20116;-73
2023/06/29 02:52:27;;;;;;;11.35;10.30;;;11.60;83.40;;;;;;5068722;28;20415;-73
2023/06/29 02:54:53;;;;;;;11.93;10.88;;;11.60;82.80;;;;;;5075171;28;20102;-73
2023/06/29 02:57:19;;;;;;;11.60;10.70;;;11.50;83.30;;;;;;5076069;28;20028;-73
2023/06/29 02:59:44;;;;;;;11.93;10.93;;;11.50;82.70;;;;;;5053452;28;20047;-73
2023/06/29 03:02:10;;;;;;;12.75;11.68;;;11.60;83.10;;;;;;5075715;28;20028;-73
2023/06/29 03:04:35;;;;;;;12.38;11.45;;;11.50;83.30;;;;;;5075892;28;20089;-73
2023/06/29 03:07:01;;;;;;;11.68;10.68;;;11.50;84.20;;;;;;5076413;28;20066;-73
2023/06/29 03:09:27;;;;;;;11.52;10.73;;;11.50;83.90;;;;;;5075780;28;20078;-73
2023/06/29 03:11:52;;;;;;;12.00;10.98;;;11.40;83.60;;;;;;5073401;28;20032;-73
2023/06/29 03:14:18;;;;;;;11.38;10.45;;;11.30;83.30;;;;;;5071347;28;20482;-73
2023/06/29 03:16:43;;;;;;;10.95;10.15;;;11.20;83.50;;;;;;5074188;28;20077;-73
2023/06/29 03:19:09;;;;;;;11.23;10.43;;;11.10;83.70;;;;;;5076771;28;20416;-72
2023/06/29 03:21:35;;;;;;;11.13;10.35;;;11.10;83.60;;;;;;5075684;28;20024;-72
2023/06/29 03:24:00;;;;;;;11.90;11.10;;;11.00;83.60;;;;;;5071815;28;20596;-72
2023/06/29 03:26:26;;;;;;;15.25;13.95;;;11.10;84.90;;;;;;5075804;28;20024;-72
2023/06/29 03:28:52;;;;;;;13.23;12.32;;;11.40;86.30;;;;;;5075310;28;20028;-73
2023/06/29 03:31:17;;;;;;;12.30;11.45;;;11.40;85.00;;;;;;5069741;28;20067;-72
2023/06/29 03:33:43;;;;;;;12.35;11.45;;;11.30;84.60;;;;;;5072144;28;20028;-73
2023/06/29 03:36:12;;;;;;;12.57;11.48;;;11.30;84.40;;;;;;5073011;28;20046;-73
2023/06/29 03:38:38;;;;;;;12.25;11.45;;;11.30;84.80;;;;;;5079104;28;20032;-73
2023/06/29 03:41:03;;;;;;;12.15;11.35;;;11.40;84.70;;;;;;5075729;28;20044;-72
2023/06/29 03:43:29;;;;;;;13.50;12.10;;;11.40;84.20;;;;;;5070866;28;20029;-72
2023/06/29 03:45:57;;;;;;;13.65;12.43;;;11.40;84.50;;;;;;5076831;28;20028;-73
2023/06/29 03:48:27;;;;;;;13.68;12.55;;;11.40;84.80;;;;;;5077414;28;20020;-73
2023/06/29 03:50:59;;;;;;;12.23;11.27;;;11.50;84.60;;;;;;5073309;28;20124;-73
2023/06/29 03:53:25;;;;;;;14.30;12.98;;;11.50;84.90;;;;;;5074416;28;20496;-72
2023/06/29 03:55:50;;;;;;;14.23;13.18;;;11.60;84.70;;;;;;5073807;28;20035;-72
2023/06/29 03:58:16;;;;;;;13.77;12.70;;;11.70;84.30;;;;;;5073223;28;20052;-73
2023/06/29 04:00:42;;;;;;;14.48;13.32;;;11.80;83.90;;;;;;5074290;28;20383;-72
2023/06/29 04:03:08;;;;;;;14.82;13.60;;;11.70;84.50;;;;;;5071117;28;20028;-73
2023/06/29 04:05:34;;;;;;;15.20;13.82;;;11.70;84.30;;;;;;5076482;28;20382;-72
2023/06/29 04:08:05;;;;;;;13.52;12.52;;;11.90;85.00;;;;;;5074446;28;20029;-72
2023/06/29 04:10:50;;;;;;;;;;;12.10;84.10;;;;;;5073999;28;20628;-72
2023/06/29 04:13:16;;;;;;;13.55;12.50;;;12.20;82.90;;;;;;5080544;28;19908;-73
2023/06/29 04:15:41;;;;;;;13.93;12.73;;;12.30;82.60;;;;;;5081172;28;20036;-73
2023/06/29 04:18:07;;;;;;;14.95;13.80;;;12.30;82.20;;;;;;5083919;28;20033;-74
2023/06/29 04:20:32;;;;;;;14.02;13.13;;;12.40;82.20;;;;;;5076590;28;20037;-73
2023/06/29 04:22:58;;;;;;;14.30;13.40;;;12.50;81.80;;;;;;5088562;28;20049;-72
2023/06/29 04:25:24;;;;;;;14.93;13.75;;;12.50;81.60;;;;;;5079557;28;20028;-74
2023/06/29 04:27:49;;;;;;;13.40;12.45;;;12.60;81.90;;;;;;5073915;28;20021;-73
2023/06/29 04:30:17;;;;;;;15.38;13.60;;;12.60;82.20;;;;;;5075056;28;20033;-72
2023/06/29 04:32:44;;;;;;;14.30;13.40;;;12.70;82.00;;;;;;5071552;28;20529;-74
2023/06/29 04:35:09;;;;;;;14.63;13.63;;;12.80;82.80;;;;;;5071739;28;20410;-73
2023/06/29 04:37:41;;;;;;;14.95;13.68;;;13.10;82.00;;;;;;5076926;28;20024;-74
2023/06/29 04:40:10;;;;;;;14.57;13.48;;;13.30;80.50;;;;;;5067945;28;20048;-77
2023/06/29 04:42:45;;;;;;;16.45;15.07;;;13.40;80.40;;;;;;5073658;28;20155;-73
2023/06/29 04:45:12;;;;;;;17.30;15.90;;;13.60;79.20;;;;;;5078426;28;20032;-72
2023/06/29 04:47:40;;;;;;;17.00;15.48;;;13.70;79.40;;;;;;5076010;28;20093;-74
2023/06/29 04:50:07;;;;;;;16.08;14.73;;;13.70;80.50;;;;;;5077735;28;20123;-74
2023/06/29 04:52:36;;;;;;;17.48;16.17;;;13.90;79.10;;;;;;5076908;28;20086;-74
2023/06/29 04:55:03;;;;;;;16.92;15.40;;;14.00;77.90;;;;;;5054883;28;20025;-74
2023/06/29 04:57:29;;;;;;;18.58;16.88;;;14.10;77.40;;;;;;5082895;28;20044;-74
2023/06/29 04:59:55;;;;;;;17.98;16.58;;;14.20;77.00;;;;;;5091615;28;20145;-73
2023/06/29 05:02:20;;;;;;;16.83;15.73;;;14.30;76.60;;;;;;5076581;28;20034;-73
2023/06/29 05:04:46;;;;;;;17.50;16.30;;;14.50;77.00;;;;;;5081065;28;20032;-72
2023/06/29 05:07:11;;;;;;;19.33;17.92;;;14.60;77.30;;;;;;5073630;28;20513;-72
2023/06/29 05:09:37;;;;;;;18.60;17.00;;;14.50;75.80;;;;;;5082477;28;20039;-76
2023/06/29 05:12:03;;;;;;;18.52;17.00;;;14.50;76.40;;;;;;5076969;28;20441;-76
2023/06/29 05:14:28;;;;;;;18.85;17.55;;;14.50;76.60;;;;;;5072256;28;20119;-74
2023/06/29 05:16:54;;;;;;;18.73;17.42;;;14.60;76.30;;;;;;5057997;28;20049;-74
2023/06/29 05:19:20;;;;;;;18.58;17.17;;;14.60;76.10;;;;;;5091610;28;20107;-75
2023/06/29 05:21:46;;;;;;;18.48;17.05;;;14.60;76.50;;;;;;5093103;28;20502;-75
2023/06/29 05:24:11;;;;;;;20.52;19.13;;;14.80;76.20;;;;;;5080108;28;20709;-74
2023/06/29 05:26:37;;;;;;;18.73;17.40;;;14.90;75.50;;;;;;5073407;28;20032;-75
2023/06/29 05:29:03;;;;;;;18.40;17.10;;;15.00;75.80;;;;;;5093669;28;20024;-75
2023/06/29 05:31:28;;;;;;;19.08;17.80;;;15.10;77.00;;;;;;5073800;28;20037;-75
2023/06/29 05:33:54;;;;;;;18.90;17.50;;;15.30;76.50;;;;;;5072960;28;20036;-76
2023/06/29 05:36:20;;;;;;;20.33;18.88;;;15.30;76.60;;;;;;5076544;28;20040;-75
2023/06/29 05:38:45;;;;;;;19.67;18.33;;;15.30;76.00;;;;;;5091525;28;20029;-75
2023/06/29 05:41:11;;;;;;;19.30;17.80;;;15.50;75.30;;;;;;5075659;28;20070;-76
2023/06/29 05:43:37;;;;;;;19.92;18.52;;;15.60;75.50;;;;;;5076815;28;20509;-76
2023/06/29 05:46:02;;;;;;;19.88;18.27;;;15.60;76.50;;;;;;5054459;28;20032;-75
2023/06/29 05:48:28;;;;;;;20.52;18.88;;;15.60;76.00;;;;;;5057622;28;20119;-76
2023/06/29 05:50:54;;;;;;;20.13;18.40;;;15.60;76.90;;;;;;5073748;28;20032;-76
2023/06/29 05:53:19;;;;;;;17.20;15.95;;;15.70;75.60;;;;;;5071666;28;20469;-72
2023/06/29 05:55:45;;;;;;;19.13;17.52;;;15.80;74.80;;;;;;5074698;28;20378;-75
2023/06/29 05:58:11;;;;;;;22.63;18.73;;;15.80;75.60;;;;;;5037084;28;20036;-75
2023/06/29 06:00:36;;;;;;;23.65;19.02;;;15.80;75.70;;;;;;5085695;28;20043;-75
2023/06/29 06:03:02;;;;;;;18.60;16.60;;;16.00;75.60;;;;;;5086951;28;20021;-75
2023/06/29 06:05:28;;;;;;;29.60;18.98;;;16.10;73.30;;;;;;5072231;28;20074;-75
2023/06/29 06:07:53;;;;;;;21.55;19.70;;;16.20;75.80;;;;;;5073380;28;20031;-75
2023/06/29 06:10:19;;;;;;;20.70;18.58;;;16.40;74.40;;;;;;5068068;28;20028;-75
2023/06/29 06:12:44;;;;;;;19.38;17.48;;;16.40;73.70;;;;;;5073168;28;20028;-75
2023/06/29 06:15:11;;;;;;;20.52;18.55;;;16.50;73.00;;;;;;5076039;28;20048;-75
2023/06/29 06:17:37;;;;;;;22.20;19.45;;;16.70;73.80;;;;;;5069963;28;20518;-75
2023/06/29 06:20:06;;;;;;;18.70;17.30;;;16.70;73.10;;;;;;5070091;28;20066;-75
2023/06/29 06:22:33;;;;;;;17.35;15.82;;;16.90;72.40;;;;;;5071845;28;20503;-74
2023/06/29 06:24:59;;;;;;;19.00;15.80;;;17.00;71.40;;;;;;5070642;28;20059;-75
2023/06/29 06:27:24;;;;;;;15.98;14.68;;;17.10;70.80;;;;;;5078630;28;20447;-74
2023/06/29 06:29:50;;;;;;;17.27;15.48;;;17.30;70.30;;;;;;5075331;28;20032;-75
2023/06/29 06:32:16;;;;;;;16.70;14.95;;;17.60;69.70;;;;;;5074453;28;20036;-75
2023/06/29 06:34:43;;;;;;;15.70;14.48;;;17.60;70.10;;;;;;5077128;28;20036;-75
2023/06/29 06:37:09;;;;;;;26.05;15.02;;;17.70;70.50;;;;;;5073729;28;20041;-75
2023/06/29 06:39:35;;;;;;;18.38;14.52;;;17.80;68.70;;;;;;5075338;28;20028;-75
2023/06/29 06:42:01;;;;;;;18.55;15.50;;;17.80;68.30;;;;;;5077948;28;20028;-75
2023/06/29 06:44:26;;;;;;;16.83;14.65;;;18.00;68.10;;;;;;5054207;28;20085;-75
2023/06/29 06:46:52;;;;;;;16.48;14.90;;;18.10;65.60;;;;;;5076099;28;20447;-75
2023/06/29 06:49:18;;;;;;;15.27;14.00;;;18.10;66.50;;;;;;5074099;28;20059;-75
2023/06/29 06:51:43;;;;;;;16.23;14.52;;;18.20;66.70;;;;;;5076799;28;20043;-75
2023/06/29 06:54:09;;;;;;;15.90;14.55;;;18.40;65.90;;;;;;5072001;28;20029;-75
2023/06/29 06:56:37;;;;;;;15.95;14.65;;;18.40;65.40;;;;;;5054953;28;20111;-75
2023/06/29 06:59:04;;;;;;;16.30;14.60;;;18.50;65.60;;;;;;5074635;28;20039;-75
2023/06/29 07:01:29;;;;;;;16.73;15.43;;;18.80;64.90;;;;;;5073100;28;20086;-74
2023/06/29 07:03:55;;;;;;;16.35;14.93;;;18.80;64.30;;;;;;5089199;28;20024;-75
2023/06/29 07:06:21;;;;;;;17.20;15.15;;;18.90;64.10;;;;;;5077917;28;20055;-75
2023/06/29 07:08:46;;;;;;;16.15;14.52;;;18.90;63.40;;;;;;5071532;28;20536;-75
2023/06/29 07:11:12;;;;;;;16.08;14.55;;;19.10;63.90;;;;;;5069939;28;20485;-74
2023/06/29 07:13:37;;;;;;;15.15;13.95;;;19.00;62.20;;;;;;5076938;28;20667;-74
2023/06/29 07:16:05;;;;;;;17.00;15.43;;;19.30;62.60;;;;;;5072581;28;20037;-74
2023/06/29 07:18:34;;;;;;;17.98;16.38;;;19.40;61.70;;;;;;5079039;28;20036;-74
2023/06/29 07:21:00;;;;;;;16.65;15.20;;;19.50;60.20;;;;;;5072822;28;20486;-75
2023/06/29 07:23:26;;;;;;;16.90;15.35;;;19.70;61.60;;;;;;5074640;28;20062;-75
2023/06/29 07:25:51;;;;;;;18.35;16.80;;;19.80;60.20;;;;;;5076067;28;20033;-74
2023/06/29 07:28:17;;;;;;;18.77;17.00;;;20.00;60.20;;;;;;5073444;28;20162;-74
2023/06/29 07:30:43;;;;;;;15.68;14.13;;;20.30;58.10;;;;;;5075147;28;20107;-74
2023/06/29 07:33:08;;;;;;;18.85;17.42;;;20.30;57.60;;;;;;5076812;28;20410;-74
2023/06/29 07:35:34;;;;;;;16.13;14.65;;;20.40;54.80;;;;;;5071975;28;20441;-75
2023/06/29 07:37:59;;;;;;;17.75;16.45;;;20.40;58.20;;;;;;5093217;28;20032;-75
2023/06/29 07:40:25;;;;;;;22.42;21.00;;;20.50;55.50;;;;;;5078095;28;20028;-74
2023/06/29 07:42:51;;;;;;;19.83;18.58;;;20.70;54.60;;;;;;5074549;28;20433;-75
2023/06/29 07:45:17;;;;;;;20.85;19.45;;;20.70;54.40;;;;;;5075246;28;20414;-74
2023/06/29 07:47:42;;;;;;;24.05;22.50;;;20.90;56.70;;;;;;5070394;28;20029;-75
2023/06/29 07:50:08;;;;;;;24.35;23.00;;;21.30;54.30;;;;;;5074426;28;20517;-75
2023/06/29 07:52:34;;;;;;;25.38;23.98;;;21.50;53.80;;;;;;5077160;28;20039;-75
2023/06/29 07:55:00;;;;;;;25.90;24.30;;;21.70;51.60;;;;;;5073070;28;20024;-75
2023/06/29 07:57:25;;;;;;;21.60;20.00;;;21.60;51.90;;;;;;5081515;28;20028;-75
2023/06/29 07:59:51;;;;;;;20.83;19.42;;;21.70;51.30;;;;;;5073846;28;20124;-75
2023/06/29 08:02:17;;;;;;;20.50;19.25;;;21.70;50.40;;;;;;5075934;28;20032;-75
2023/06/29 08:04:42;;;;;;;22.42;21.30;;;21.70;50.00;;;;;;5077724;28;20382;-75
2023/06/29 08:07:08;;;;;;;18.10;17.10;;;21.70;50.60;;;;;;5069776;28;20542;-75
2023/06/29 08:09:34;;;;;;;28.73;27.13;;;21.90;51.30;;;;;;5087044;28;20427;-75
2023/06/29 08:11:59;;;;;;;16.63;15.63;;;22.40;49.90;;;;;;5070196;28;20482;-75
2023/06/29 08:14:25;;;;;;;30.05;28.13;;;22.40;46.20;;;;;;5072933;28;20132;-75
2023/06/29 08:16:51;;;;;;;16.40;15.50;;;22.50;49.10;;;;;;5079164;28;20021;-75
2023/06/29 08:19:17;;;;;;;27.92;26.42;;;22.50;45.80;;;;;;5074623;28;20035;-75
2023/06/29 08:21:42;;;;;;;20.95;19.17;;;22.50;46.90;;;;;;5078335;28;20099;-74
2023/06/29 08:24:08;;;;;;;20.67;19.38;;;22.60;48.30;;;;;;5080776;28;20053;-75
2023/06/29 08:26:37;;;;;;;28.75;27.30;;;22.80;46.50;;;;;;5076227;28;20418;-75
2023/06/29 08:29:02;;;;;;;40.80;39.05;;;22.90;49.30;;;;;;5077477;28;20578;-74
2023/06/29 08:31:28;;;;;;;58.00;55.38;;;23.00;45.80;;;;;;5080476;28;20110;-74
2023/06/29 08:33:54;;;;;;;100.45;96.18;;;23.20;45.70;;;;;;5079813;28;20460;-75
2023/06/29 08:36:20;;;;;;;37.22;35.13;;;23.10;44.00;;;;;;5081543;28;20064;-75
2023/06/29 08:38:49;;;;;;;93.90;90.05;;;23.30;46.30;;;;;;5091839;28;20051;-75
2023/06/29 08:41:16;;;;;;;100.60;96.38;;;23.60;44.30;;;;;;5074403;28;20039;-75
2023/06/29 08:43:41;;;;;;;90.18;86.57;;;24.00;44.00;;;;;;5080170;28;20085;-74
2023/06/29 08:46:08;;;;;;;142.73;137.52;;;24.20;43.50;;;;;;5056318;28;20037;-75
2023/06/29 08:48:34;;;;;;;96.50;92.72;;;24.80;42.80;;;;;;5072048;28;20041;-75
2023/06/29 08:51:03;;;;;;;172.25;165.90;;;24.70;41.80;;;;;;5074688;28;20060;-75
2023/06/29 08:53:29;;;;;;;138.48;133.27;;;25.20;39.00;;;;;;5075086;28;20043;-75
2023/06/29 08:55:56;;;;;;;321.05;308.65;;;25.50;41.70;;;;;;5078241;28;20032;-75
2023/06/29 08:58:23;;;;;;;272.70;262.55;;;25.70;34.90;;;;;;5075021;28;20044;-75
2023/06/29 09:00:50;;;;;;;481.13;459.63;;;25.40;37.10;;;;;;5075269;28;20039;-75
2023/06/29 09:03:17;;;;;;;644.63;612.42;;;25.60;35.30;;;;;;5077536;28;20028;-75
2023/06/29 09:05:45;;;;;;;631.03;601.08;;;25.50;34.70;;;;;;5089418;28;20027;-75
2023/06/29 09:08:11;;;;;;;628.25;598.53;;;25.80;37.10;;;;;;5080298;28;20040;-75
2023/06/29 09:10:39;;;;;;;649.33;616.80;;;26.00;35.50;;;;;;5078932;28;20043;-75
2023/06/29 09:13:05;;;;;;;697.17;661.30;;;26.80;36.10;;;;;;5073442;28;20036;-75
2023/06/29 09:15:31;;;;;;;720.22;681.80;;;26.60;33.70;;;;;;5077252;28;20048;-75
2023/06/29 09:17:57;;;;;;;735.28;695.28;;;26.70;33.00;;;;;;5055692;28;20089;-75
2023/06/29 09:20:25;;;;;;;1999.90;999.90;;;26.90;33.00;;;;;;5078066;28;20426;-76
2023/06/29 09:22:51;;;;;;;1999.90;999.90;;;26.60;29.80;;;;;;5056779;28;20056;-75
2023/06/29 09:25:17;;;;;;;1999.90;999.90;;;26.70;33.40;;;;;;5074254;28;20047;-76
2023/06/29 09:27:43;;;;;;;1999.90;999.90;;;26.80;29.60;;;;;;5094335;28;20039;-75
2023/06/29 09:30:18;;;;;;;1999.90;999.90;;;27.00;31.10;;;;;;5079757;28;20033;-75
2023/06/29 09:32:43;;;;;;;1999.90;999.90;;;26.90;29.60;;;;;;5072369;28;20032;-75
2023/06/29 09:35:09;;;;;;;1999.90;999.90;;;26.50;31.50;;;;;;5077318;28;20043;-75
2023/06/29 09:37:36;;;;;;;1999.90;999.90;;;26.40;31.40;;;;;;5074426;28;20037;-75
2023/06/29 09:40:12;;;;;;;1999.90;999.90;;;26.60;30.00;;;;;;5079792;28;20080;-76
2023/06/29 09:42:38;;;;;;;1999.90;999.90;;;26.80;31.60;;;;;;5075352;28;20032;-75
2023/06/29 09:45:14;;;;;;;1999.90;999.90;;;27.00;34.20;;;;;;5074125;28;20513;-75
2023/06/29 09:47:48;;;;;;;1999.90;999.90;;;27.10;34.10;;;;;;5077651;28;20136;-75
2023/06/29 09:50:18;;;;;;;1999.90;999.90;;;26.70;32.20;;;;;;5072633;28;20038;-75
2023/06/29 09:52:45;;;;;;;;;;;27.30;31.20;;;;;;5074025;28;20032;-75
2023/06/29 09:55:11;;;;;;;1999.90;999.90;;;27.10;30.00;;;;;;5075843;28;19916;-75
2023/06/29 09:57:40;;;;;;;1999.90;999.90;;;27.10;30.30;;;;;;5072834;28;20445;-76
2023/06/29 10:00:11;;;;;;;1999.90;999.90;;;27.70;32.90;;;;;;5081034;28;20509;-75
2023/06/29 10:02:37;;;;;;;1999.90;999.90;;;27.80;28.10;;;;;;5077453;28;20060;-75
2023/06/29 10:05:03;;;;;;;1999.90;999.90;;;28.00;31.10;;;;;;5055794;28;20032;-75
2023/06/29 10:07:29;;;;;;;1999.90;999.90;;;28.80;27.60;;;;;;5074674;28;20101;-75
2023/06/29 10:09:56;;;;;;;1999.90;999.90;;;29.00;27.00;;;;;;5078537;28;20460;-75
2023/06/29 10:12:26;;;;;;;1999.90;999.90;;;29.30;26.70;;;;;;5073882;28;20680;-75
2023/06/29 10:14:55;;;;;;;1999.90;999.90;;;29.70;28.60;;;;;;5071816;28;20033;-75
2023/06/29 10:17:30;;;;;;;1999.90;999.90;;;30.10;28.00;;;;;;5076108;28;20038;-76
2023/06/29 10:19:57;;;;;;;1999.90;999.90;;;29.20;27.50;;;;;;5056711;28;20032;-75
2023/06/29 10:22:25;;;;;;;1999.90;999.90;;;28.00;27.70;;;;;;5072852;28;20075;-75
2023/06/29 10:24:55;;;;;;;1999.90;999.90;;;27.40;27.70;;;;;;5073341;28;20025;-75
2023/06/29 10:27:24;;;;;;;1999.90;999.90;;;27.80;29.60;;;;;;5074278;28;20066;-75
2023/06/29 10:29:50;;;;;;;1999.90;999.90;;;28.20;30.10;;;;;;5073839;28;20491;-75
2023/06/29 10:32:37;;;;;;;1999.90;999.90;;;29.00;27.50;;;;;;5072712;28;20282;-75
2023/06/29 10:35:07;;;;;;;1999.90;999.90;;;30.00;25.50;;;;;;5072646;28;20033;-75
2023/06/29 10:37:35;;;;;;;1999.90;999.90;;;30.40;27.10;;;;;;5074842;28;20075;-75
2023/06/29 10:40:05;;;;;;;1999.90;999.90;;;29.70;25.00;;;;;;5092008;28;20032;-75
2023/06/29 10:42:33;;;;;;;;;;;28.90;26.70;;;;;;5070961;28;20078;-74
2023/06/29 10:44:59;;;;;;;1999.90;999.90;;;28.20;27.30;;;;;;5079510;28;19921;-75
2023/06/29 10:47:37;;;;;;;1999.90;999.90;;;27.90;27.30;;;;;;5074666;28;20393;-75
2023/06/29 10:50:08;;;;;;;1999.90;999.90;;;28.00;27.90;;;;;;5071574;28;20025;-75
2023/06/29 10:52:35;;;;;;;1999.90;999.90;;;28.10;27.60;;;;;;5073140;28;20064;-75
2023/06/29 10:55:23;;;;;;;1999.90;999.90;;;28.40;26.70;;;;;;5088150;28;20390;-75
2023/06/29 10:58:15;;;;;;;1999.90;999.90;;;29.00;25.60;;;;;;5079546;28;20119;-75
2023/06/29 11:00:42;;;;;;;1999.90;999.90;;;29.00;28.20;;;;;;5049292;28;20048;-75
2023/06/29 11:03:11;;;;;;;1999.90;999.90;;;28.70;27.80;;;;;;5074213;28;20406;-75
2023/06/29 11:05:37;;;;;;;1999.90;999.90;;;28.40;27.10;;;;;;5072916;28;20487;-75
2023/06/29 11:08:06;;;;;;;1999.90;999.90;;;28.80;26.90;;;;;;5072223;28;20123;-75
2023/06/29 11:10:32;;;;;;;1999.90;999.90;;;29.30;27.10;;;;;;5058097;28;20104;-75
2023/06/29 11:12:58;;;;;;;1999.90;999.90;;;30.00;25.70;;;;;;5074953;28;20066;-75
2023/06/29 11:15:26;;;;;;;1999.90;999.90;;;30.10;25.20;;;;;;5087515;28;20399;-75
2023/06/29 11:17:53;;;;;;;1999.90;999.90;;;29.60;26.30;;;;;;5077107;28;20027;-75
2023/06/29 11:20:20;;;;;;;1999.90;999.90;;;30.20;26.40;;;;;;5072913;28;20048;-75
2023/06/29 11:22:46;;;;;;;1999.90;999.90;;;30.90;23.50;;;;;;5073063;28;20052;-75
2023/06/29 11:25:16;;;;;;;1999.90;999.90;;;31.60;23.80;;;;;;5093585;28;20086;-75
2023/06/29 11:27:42;;;;;;;1999.90;999.90;;;32.80;23.50;;;;;;5068309;28;20023;-76
2023/06/29 11:30:13;;;;;;;1999.90;999.90;;;32.70;23.50;;;;;;5072996;28;20055;-75
2023/06/29 11:32:41;;;;;;;1999.90;999.90;;;31.60;23.50;;;;;;5071137;28;20483;-75
2023/06/29 11:35:10;;;;;;;1999.90;999.90;;;30.70;23.50;;;;;;5073957;28;20048;-75
2023/06/29 11:37:39;;;;;;;1999.90;999.90;;;30.70;24.50;;;;;;5070515;28;20039;-75
2023/06/29 11:40:17;;;;;;;1999.90;999.90;;;30.60;25.50;;;;;;5070899;28;20032;-75
2023/06/29 11:42:43;;;;;;;1999.90;999.90;;;29.60;26.30;;;;;;5074392;28;20028;-75
2023/06/29 11:45:10;;;;;;;1999.90;999.90;;;29.60;26.20;;;;;;5072445;28;20130;-75
2023/06/29 11:47:36;;;;;;;1999.90;999.90;;;28.90;27.90;;;;;;5072681;28;20498;-75
2023/06/29 11:50:07;;;;;;;1999.90;999.90;;;28.20;27.30;;;;;;5077581;28;20038;-75
2023/06/29 11:52:34;;;;;;;1999.90;999.90;;;28.10;26.50;;;;;;5070177;28;20573;-75
2023/06/29 11:55:01;;;;;;;1999.90;999.90;;;27.50;28.10;;;;;;5072094;28;20032;-74
2023/06/29 11:57:31;;;;;;;1999.90;999.90;;;27.50;29.30;;;;;;5070488;28;20037;-74
2023/06/29 11:59:57;;;;;;;1999.90;999.90;;;27.50;28.00;;;;;;5068646;28;20147;-75
2023/06/29 12:02:23;;;;;;;1999.90;999.90;;;28.70;26.40;;;;;;5074080;28;20211;-75
2023/06/29 12:04:59;;;;;;;1999.90;999.90;;;27.90;28.40;;;;;;5054519;28;20503;-75
2023/06/29 12:07:36;;;;;;;1999.90;999.90;;;27.70;30.00;;;;;;5069319;28;20542;-75
2023/06/29 12:10:06;;;;;;;1999.90;999.90;;;27.70;28.30;;;;;;5075438;28;20036;-74
2023/06/29 12:12:36;;;;;;;1999.90;999.90;;;27.80;29.70;;;;;;5071224;28;20039;-73
2023/06/29 12:15:15;;;;;;;1999.90;999.90;;;28.10;28.10;;;;;;5076244;28;20055;-74
2023/06/29 12:17:42;;;;;;;1999.90;999.90;;;27.80;28.50;;;;;;5089467;28;20064;-74
2023/06/29 12:20:15;;;;;;;1999.90;999.90;;;28.20;28.10;;;;;;5073846;28;20414;-75